createdAt,value
2023-03-05T00:01:25.005Z,11.34
2023-03-05T00:03:54.356Z,10.87
2023-03-05T00:06:23.832Z,10.81
2023-03-05T00:08:53.609Z,10.60
2023-03-05T00:11:21.430Z,10.55
2023-03-05T00:13:52.264Z,10.58
2023-03-05T00:16:20.690Z,10.94
2023-03-05T00:18:49.222Z,10.89
2023-03-05T00:21:22.025Z,11.04
2023-03-05T00:23:53.138Z,10.70
2023-03-05T00:26:22.038Z,10.75
2023-03-05T00:28:52.333Z,10.98
2023-03-05T00:31:21.372Z,10.78
2023-03-05T00:33:57.124Z,10.64
2023-03-05T00:36:25.324Z,10.70
2023-03-05T00:38:53.562Z,10.57
2023-03-05T00:41:21.817Z,10.57
2023-03-05T00:43:49.843Z,10.60
2023-03-05T00:46:17.650Z,10.59
2023-03-05T00:48:45.802Z,10.91
2023-03-05T00:51:13.483Z,10.89
2023-03-05T00:53:41.486Z,10.73
2023-03-05T00:56:09.078Z,10.67
2023-03-05T00:58:38.358Z,10.42
2023-03-05T01:01:06.538Z,10.43
2023-03-05T01:03:34.941Z,10.47
2023-03-05T01:06:05.628Z,10.65
2023-03-05T01:08:34.443Z,10.77
2023-03-05T01:11:02.473Z,10.83
2023-03-05T01:13:30.660Z,10.81
2023-03-05T01:15:58.584Z,10.82
2023-03-05T01:18:26.769Z,10.62
2023-03-05T01:20:54.633Z,10.52
2023-03-05T01:23:22.735Z,10.31
2023-03-05T01:25:54.373Z,10.25
2023-03-05T01:28:22.634Z,10.33
2023-03-05T01:30:50.643Z,10.42
2023-03-05T01:33:18.817Z,10.19
2023-03-05T01:35:47.748Z,10.34
2023-03-05T01:38:16.652Z,10.66
2023-03-05T01:40:44.765Z,10.65
2023-03-05T01:43:12.944Z,10.53
2023-03-05T01:46:00.622Z,10.34
2023-03-05T01:48:28.980Z,10.41
2023-03-05T01:50:56.942Z,10.12
2023-03-05T01:53:25.149Z,10.23
2023-03-05T01:55:54.886Z,10.16
2023-03-05T01:58:25.895Z,10.30
2023-03-05T02:00:55.318Z,10.24
2023-03-05T02:03:25.204Z,10.14
2023-03-05T02:05:53.939Z,10.15
2023-03-05T02:08:22.864Z,10.18
2023-03-05T02:10:53.020Z,10.23
2023-03-05T02:13:25.593Z,10.13
2023-03-05T02:15:54.500Z,10.06
2023-03-05T02:18:22.873Z,10.11
2023-03-05T02:20:52.411Z,10.08
2023-03-05T02:23:21.401Z,10.01
2023-03-05T02:25:49.292Z,9.99
2023-03-05T02:28:26.711Z,10.03
2023-03-05T02:30:54.500Z,10.02
2023-03-05T02:33:23.033Z,9.93
2023-03-05T02:35:51.205Z,9.97
2023-03-05T02:38:21.113Z,9.83
2023-03-05T02:40:48.961Z,9.84
2023-03-05T02:43:18.487Z,9.86
2023-03-05T02:45:46.300Z,9.82
2023-03-05T02:48:14.469Z,9.71
2023-03-05T02:50:42.349Z,9.59
2023-03-05T02:53:10.750Z,9.67
2023-03-05T02:55:39.410Z,9.66
2023-03-05T02:58:07.600Z,9.68
2023-03-05T03:00:35.612Z,9.65
2023-03-05T03:03:03.885Z,9.80
2023-03-05T03:05:31.840Z,9.57
2023-03-05T03:08:00.205Z,9.63
2023-03-05T03:10:28.060Z,9.40
2023-03-05T03:12:56.231Z,9.46
2023-03-05T03:15:24.160Z,9.45
2023-03-05T03:17:52.241Z,9.33
2023-03-05T03:20:20.846Z,9.39
2023-03-05T03:22:49.096Z,9.46
2023-03-05T03:25:18.078Z,9.60
2023-03-05T03:27:46.385Z,9.41
2023-03-05T03:30:14.702Z,9.55
2023-03-05T03:32:42.853Z,9.48
2023-03-05T03:35:11.596Z,9.47
2023-03-05T03:37:39.790Z,9.47
2023-03-05T03:40:07.739Z,9.52
2023-03-05T03:42:36.053Z,9.56
2023-03-05T03:45:04.362Z,9.47
2023-03-05T03:47:32.654Z,9.41
2023-03-05T03:50:00.423Z,9.31
2023-03-05T03:52:28.581Z,9.48
2023-03-05T03:55:02.365Z,9.47
2023-03-05T03:57:31.219Z,9.47
2023-03-05T03:59:59.200Z,9.54
2023-03-05T04:02:27.513Z,9.58
2023-03-05T04:04:55.366Z,9.36
2023-03-05T04:07:23.932Z,9.22
2023-03-05T04:09:51.741Z,9.31
2023-03-05T04:12:20.126Z,9.30
2023-03-05T04:14:48.976Z,9.34
2023-03-05T04:17:17.313Z,9.32
2023-03-05T04:19:45.232Z,9.59
2023-03-05T04:22:14.334Z,9.65
2023-03-05T04:24:42.581Z,9.65
2023-03-05T04:27:11.123Z,9.31
2023-03-05T04:29:39.935Z,9.30
2023-03-05T04:32:08.476Z,9.42
2023-03-05T04:34:37.776Z,9.24
2023-03-05T04:37:06.133Z,9.16
2023-03-05T04:39:33.866Z,9.32
2023-03-05T04:42:02.083Z,9.19
2023-03-05T04:44:29.953Z,9.11
2023-03-05T04:46:58.187Z,9.17
2023-03-05T04:49:25.960Z,8.97
2023-03-05T04:51:54.160Z,8.95
2023-03-05T04:54:22.751Z,9.27
2023-03-05T04:56:50.890Z,9.11
2023-03-05T04:59:18.702Z,9.03
2023-03-05T05:01:47.128Z,8.94
2023-03-05T05:04:14.827Z,8.98
2023-03-05T05:06:42.742Z,8.89
2023-03-05T05:09:10.375Z,8.72
2023-03-05T05:11:38.327Z,8.50
2023-03-05T05:14:06.142Z,8.39
2023-03-05T05:16:34.529Z,8.42
2023-03-05T05:19:02.341Z,8.43
2023-03-05T05:21:30.358Z,8.49
2023-03-05T05:23:57.989Z,8.67
2023-03-05T05:26:27.943Z,8.42
2023-03-05T05:28:55.567Z,8.50
2023-03-05T05:31:23.544Z,8.77
2023-03-05T05:33:51.191Z,9.05
2023-03-05T05:36:19.573Z,8.93
2023-03-05T05:38:47.232Z,8.96
2023-03-05T05:41:16.476Z,8.87
2023-03-05T05:43:44.095Z,8.84
2023-03-05T05:46:16.568Z,8.84
2023-03-05T05:48:44.763Z,8.75
2023-03-05T05:51:15.159Z,8.55
2023-03-05T05:53:43.296Z,8.69
2023-03-05T05:56:12.349Z,8.90
2023-03-05T05:58:41.526Z,8.80
2023-03-05T06:01:28.393Z,8.73
2023-03-05T06:03:56.669Z,8.58
2023-03-05T06:06:25.794Z,8.58
2023-03-05T06:08:53.845Z,8.51
2023-03-05T06:11:22.280Z,8.47
2023-03-05T06:13:50.676Z,8.47
2023-03-05T06:16:21.745Z,8.35
2023-03-05T06:18:49.757Z,8.40
2023-03-05T06:21:19.174Z,8.71
2023-03-05T06:23:48.046Z,8.77
2023-03-05T06:26:17.799Z,8.98
2023-03-05T06:28:45.937Z,8.94
2023-03-05T06:31:19.084Z,8.76
2023-03-05T06:33:47.053Z,8.80
2023-03-05T06:36:16.359Z,8.73
2023-03-05T06:38:44.634Z,8.95
2023-03-05T06:41:17.304Z,8.95
2023-03-05T06:43:46.163Z,8.77
2023-03-05T06:46:19.484Z,8.96
2023-03-05T06:48:47.876Z,9.14
2023-03-05T06:51:20.589Z,9.23
2023-03-05T06:53:49.558Z,9.30
2023-03-05T06:56:19.264Z,9.42
2023-03-05T06:58:49.121Z,9.43
2023-03-05T07:01:17.359Z,9.65
2023-03-05T07:03:45.183Z,9.71
2023-03-05T07:06:14.115Z,10.04
2023-03-05T07:08:42.149Z,10.06
2023-03-05T07:11:11.397Z,10.02
2023-03-05T07:13:39.209Z,10.09
2023-03-05T07:16:08.937Z,10.61
2023-03-05T07:18:36.817Z,10.54
2023-03-05T07:21:09.057Z,10.33
2023-03-05T07:23:37.001Z,10.50
2023-03-05T07:26:06.420Z,10.54
2023-03-05T07:28:34.718Z,10.24
2023-03-05T07:31:05.264Z,10.59
2023-03-05T07:33:35.220Z,10.89
2023-03-05T07:36:05.042Z,10.65
2023-03-05T07:38:32.668Z,10.72
2023-03-05T07:41:04.681Z,10.53
2023-03-05T07:43:32.309Z,11.13
2023-03-05T07:46:03.593Z,11.08
2023-03-05T07:48:31.379Z,11.45
2023-03-05T07:51:03.141Z,11.73
2023-03-05T07:53:30.904Z,11.72
2023-03-05T07:55:59.125Z,11.99
2023-03-05T07:58:26.828Z,11.24
2023-03-05T08:00:54.845Z,11.26
2023-03-05T08:03:23.622Z,11.13
2023-03-05T08:05:51.589Z,12.08
2023-03-05T08:08:19.250Z,12.08
2023-03-05T08:10:47.240Z,12.23
2023-03-05T08:13:15.071Z,12.51
2023-03-05T08:15:43.170Z,12.58
2023-03-05T08:18:11.046Z,12.92
2023-03-05T08:20:39.120Z,13.36
2023-03-05T08:23:06.720Z,13.52
2023-03-05T08:25:34.859Z,13.76
2023-03-05T08:28:02.578Z,14.03
2023-03-05T08:30:30.777Z,13.09
2023-03-05T08:32:58.388Z,13.46
2023-03-05T08:35:26.401Z,13.55
2023-03-05T08:37:54.018Z,13.49
2023-03-05T08:40:22.074Z,13.19
2023-03-05T08:42:52.333Z,13.95
2023-03-05T08:45:20.249Z,14.22
2023-03-05T08:47:47.882Z,13.73
2023-03-05T08:50:15.931Z,13.97
2023-03-05T08:52:43.609Z,14.31
2023-03-05T08:55:12.874Z,13.78
2023-03-05T08:57:40.489Z,13.86
2023-03-05T09:00:10.471Z,14.65
2023-03-05T09:02:38.296Z,14.32
2023-03-05T09:05:07.102Z,14.46
2023-03-05T09:07:34.846Z,14.45
2023-03-05T09:10:02.903Z,14.51
2023-03-05T09:12:30.549Z,15.51
2023-03-05T09:14:58.570Z,14.85
2023-03-05T09:17:26.295Z,14.96
2023-03-05T09:19:54.321Z,14.59
2023-03-05T09:22:21.990Z,14.74
2023-03-05T09:24:49.972Z,14.50
2023-03-05T09:27:17.590Z,14.53
2023-03-05T09:29:45.727Z,15.85
2023-03-05T09:32:13.661Z,14.67
2023-03-05T09:34:41.843Z,14.61
2023-03-05T09:37:09.889Z,14.75
2023-03-05T09:39:38.029Z,15.55
2023-03-05T09:42:10.203Z,15.06
2023-03-05T09:45:02.298Z,15.13
2023-03-05T09:47:30.048Z,15.18
2023-03-05T09:50:32.292Z,15.34
2023-03-05T09:53:05.260Z,15.13
2023-03-05T09:55:33.329Z,15.12
2023-03-05T09:58:06.289Z,15.79
2023-03-05T10:00:34.461Z,16.20
2023-03-05T10:03:06.314Z,15.89
2023-03-05T10:05:34.567Z,15.97
2023-03-05T10:08:04.709Z,15.96
2023-03-05T10:10:39.943Z,17.16
2023-03-05T10:13:19.799Z,16.78
2023-03-05T10:16:07.017Z,16.57
2023-03-05T10:18:34.651Z,16.41
2023-03-05T10:21:25.865Z,17.50
2023-03-05T10:24:06.211Z,18.31
2023-03-05T10:26:50.853Z,18.65
2023-03-05T10:29:21.419Z,17.46
2023-03-05T10:31:52.903Z,17.57
2023-03-05T10:34:31.772Z,17.66
2023-03-05T10:37:13.059Z,18.49
2023-03-05T10:39:59.212Z,18.65
2023-03-05T10:42:48.499Z,17.87
2023-03-05T10:45:18.333Z,18.18
2023-03-05T10:47:46.428Z,17.81
2023-03-05T10:50:25.135Z,17.55
2023-03-05T10:53:14.239Z,17.82
2023-03-05T10:55:42.327Z,17.76
2023-03-05T10:58:11.774Z,17.86
2023-03-05T11:00:57.522Z,18.62
2023-03-05T11:03:25.707Z,18.33
2023-03-05T11:06:01.666Z,18.36
2023-03-05T11:08:32.045Z,18.78
2023-03-05T11:11:04.551Z,18.89
2023-03-05T11:13:34.037Z,18.56
2023-03-05T11:16:04.066Z,19.68
2023-03-05T11:18:36.503Z,20.35
2023-03-05T11:21:09.052Z,20.82
2023-03-05T11:23:37.482Z,20.25
2023-03-05T11:26:15.872Z,19.87
2023-03-05T11:28:52.846Z,18.95
2023-03-05T11:31:25.999Z,19.96
2023-03-05T11:34:02.189Z,19.00
2023-03-05T11:36:34.603Z,20.51
2023-03-05T11:39:05.363Z,19.39
2023-03-05T11:41:37.555Z,20.39
2023-03-05T11:44:13.290Z,20.18
2023-03-05T11:46:42.875Z,20.82
2023-03-05T11:49:14.404Z,19.75
2023-03-05T11:51:45.793Z,20.23
2023-03-05T11:54:16.878Z,19.21
2023-03-05T11:56:46.286Z,18.94
2023-03-05T11:59:14.278Z,19.86
2023-03-05T12:01:53.147Z,18.93
2023-03-05T12:04:22.609Z,20.25
2023-03-05T12:06:58.199Z,20.58
2023-03-05T12:09:45.725Z,19.84
2023-03-05T12:12:22.590Z,19.08
2023-03-05T12:14:59.572Z,18.96
2023-03-05T12:17:37.840Z,18.53
2023-03-05T12:20:06.899Z,19.72
2023-03-05T12:22:38.053Z,20.07
2023-03-05T12:25:24.936Z,20.79
2023-03-05T12:27:52.902Z,19.97
2023-03-05T12:30:29.738Z,19.37
2023-03-05T12:32:57.486Z,21.14
2023-03-05T12:35:27.373Z,20.77
2023-03-05T12:37:55.031Z,20.73
2023-03-05T12:40:23.090Z,19.91
2023-03-05T12:42:50.757Z,19.83
2023-03-05T12:45:20.022Z,20.85
2023-03-05T12:47:47.696Z,20.04
2023-03-05T12:50:28.005Z,21.53
2023-03-05T12:52:57.183Z,19.74
2023-03-05T12:55:50.314Z,20.00
2023-03-05T12:58:17.932Z,20.92
2023-03-05T13:00:49.789Z,22.41
2023-03-05T13:03:37.183Z,20.65
2023-03-05T13:06:07.010Z,20.62
2023-03-05T13:08:38.372Z,21.36
2023-03-05T13:11:16.558Z,22.40
2023-03-05T13:13:45.698Z,21.99
2023-03-05T13:16:18.753Z,20.55
2023-03-05T13:18:48.360Z,22.63
2023-03-05T13:21:18.166Z,21.88
2023-03-05T13:23:47.014Z,21.84
2023-03-05T13:26:18.936Z,21.59
2023-03-05T13:29:05.132Z,20.86
2023-03-05T13:31:34.979Z,21.08
2023-03-05T13:34:12.543Z,20.50
2023-03-05T13:36:40.806Z,20.63
2023-03-05T13:39:18.160Z,21.63
2023-03-05T13:41:55.558Z,23.05
2023-03-05T13:44:23.115Z,22.72
2023-03-05T13:46:51.161Z,22.67
2023-03-05T13:49:23.229Z,21.92
2023-03-05T13:51:52.437Z,21.45
2023-03-05T13:54:20.545Z,21.86
2023-03-05T13:56:59.205Z,21.72
2023-03-05T13:59:29.220Z,21.93
2023-03-05T14:01:59.094Z,21.92
2023-03-05T14:04:28.746Z,21.79
2023-03-05T14:06:59.407Z,22.42
2023-03-05T14:09:39.027Z,23.45
2023-03-05T14:12:06.980Z,22.20
2023-03-05T14:14:36.700Z,22.71
2023-03-05T14:17:30.797Z,21.58
2023-03-05T14:20:13.375Z,21.36
2023-03-05T14:22:43.161Z,21.57
2023-03-05T14:25:37.801Z,21.57
2023-03-05T14:28:25.443Z,22.19
2023-03-05T14:30:54.796Z,21.50
2023-03-05T14:33:24.311Z,23.14
2023-03-05T14:35:52.800Z,23.47
2023-03-05T14:38:24.274Z,22.47
2023-03-05T14:40:52.097Z,23.23
2023-03-05T14:43:20.343Z,22.00
2023-03-05T14:45:48.126Z,21.98
2023-03-05T14:48:18.909Z,22.61
2023-03-05T14:50:51.917Z,21.60
2023-03-05T14:53:25.950Z,21.67
2023-03-05T14:55:56.930Z,22.11
2023-03-05T14:58:26.398Z,22.26
2023-03-05T15:00:54.571Z,23.48
2023-03-05T15:03:23.113Z,23.21
2023-03-05T15:05:52.900Z,24.04
2023-03-05T15:08:23.034Z,24.85
2023-03-05T15:10:51.403Z,25.04
2023-03-05T15:13:19.286Z,23.92
2023-03-05T15:15:48.123Z,24.06
2023-03-05T15:18:18.110Z,24.74
2023-03-05T15:20:46.462Z,24.94
2023-03-05T15:23:14.467Z,24.29
2023-03-05T15:25:42.227Z,23.28
2023-03-05T15:28:10.230Z,23.64
2023-03-05T15:30:39.921Z,24.02
2023-03-05T15:33:10.718Z,24.47
2023-03-05T15:35:38.354Z,24.43
2023-03-05T15:38:06.255Z,23.74
2023-03-05T15:40:34.259Z,23.59
2023-03-05T15:43:02.145Z,22.98
2023-03-05T15:45:31.563Z,22.96
2023-03-05T15:47:59.733Z,22.36
2023-03-05T15:50:27.294Z,20.57
2023-03-05T15:52:55.321Z,20.84
2023-03-05T15:55:22.953Z,20.66
2023-03-05T15:57:52.217Z,20.00
2023-03-05T16:00:25.535Z,20.87
2023-03-05T16:02:53.903Z,20.35
2023-03-05T16:05:21.914Z,20.38
2023-03-05T16:07:51.945Z,19.75
2023-03-05T16:10:22.506Z,19.88
2023-03-05T16:12:52.299Z,19.26
2023-03-05T16:15:21.850Z,18.81
2023-03-05T16:17:53.832Z,19.82
2023-03-05T16:20:22.126Z,19.33
2023-03-05T16:22:50.283Z,19.57
2023-03-05T16:25:18.128Z,19.59
2023-03-05T16:27:46.098Z,19.47
2023-03-05T16:30:17.185Z,19.04
2023-03-05T16:32:45.245Z,18.72
2023-03-05T16:35:13.325Z,18.78
2023-03-05T16:37:41.508Z,19.01
2023-03-05T16:40:10.265Z,18.81
2023-03-05T16:42:38.111Z,18.20
2023-03-05T16:45:06.501Z,18.07
2023-03-05T16:47:34.572Z,18.49
2023-03-05T16:50:02.577Z,18.58
2023-03-05T16:52:30.989Z,18.56
2023-03-05T16:54:58.714Z,18.41
2023-03-05T16:57:26.988Z,18.27
2023-03-05T16:59:55.775Z,18.25
2023-03-05T17:02:24.087Z,18.24
2023-03-05T17:04:51.968Z,18.22
2023-03-05T17:07:20.221Z,18.02
2023-03-05T17:09:48.402Z,18.02
2023-03-05T17:12:16.378Z,18.11
2023-03-05T17:14:44.039Z,18.06
2023-03-05T17:17:12.286Z,17.99
2023-03-05T17:19:40.416Z,17.75
2023-03-05T17:22:08.386Z,17.38
2023-03-05T17:24:36.563Z,17.55
2023-03-05T17:27:04.525Z,17.44
2023-03-05T17:29:32.225Z,17.38
2023-03-05T17:32:00.348Z,17.39
2023-03-05T17:34:36.148Z,17.19
2023-03-05T17:37:05.246Z,17.25
2023-03-05T17:39:33.385Z,17.17
2023-03-05T17:42:01.423Z,17.29
2023-03-05T17:44:28.974Z,17.10
2023-03-05T17:46:57.232Z,16.83
2023-03-05T17:49:25.068Z,16.69
2023-03-05T17:51:53.066Z,16.61
2023-03-05T17:54:20.870Z,16.74
2023-03-05T17:56:49.266Z,16.35
2023-03-05T17:59:17.046Z,16.50
2023-03-05T18:01:46.394Z,16.52
2023-03-05T18:04:15.607Z,16.41
2023-03-05T18:06:43.896Z,16.34
2023-03-05T18:09:12.302Z,16.63
2023-03-05T18:11:40.851Z,16.57
2023-03-05T18:14:09.834Z,16.45
2023-03-05T18:16:39.371Z,16.38
2023-03-05T18:19:11.327Z,16.45
2023-03-05T18:21:40.489Z,16.22
2023-03-05T18:24:09.678Z,16.01
2023-03-05T18:26:38.162Z,16.20
2023-03-05T18:29:07.186Z,16.17
2023-03-05T18:31:37.075Z,16.28
2023-03-05T18:34:05.236Z,16.21
2023-03-05T18:36:33.498Z,16.06
2023-03-05T18:39:01.280Z,16.15
2023-03-05T18:41:31.480Z,16.14
2023-03-05T18:43:59.282Z,16.17
2023-03-05T18:46:27.516Z,15.98
2023-03-05T18:48:55.280Z,15.90
2023-03-05T18:51:23.480Z,15.98
2023-03-05T18:53:55.136Z,15.85
2023-03-05T18:56:23.916Z,15.87
2023-03-05T18:58:51.763Z,15.76
2023-03-05T19:01:20.210Z,15.83
2023-03-05T19:03:49.518Z,15.70
2023-03-05T19:06:17.928Z,15.94
2023-03-05T19:08:45.764Z,15.82
2023-03-05T19:11:16.491Z,15.79
2023-03-05T19:13:49.086Z,15.91
2023-03-05T19:16:20.125Z,15.79
2023-03-05T19:19:16.785Z,15.94
2023-03-05T19:21:48.880Z,15.91
2023-03-05T19:24:17.190Z,15.89
2023-03-05T19:26:45.375Z,15.81
2023-03-05T19:29:13.177Z,15.73
2023-03-05T19:31:41.369Z,15.79
2023-03-05T19:34:09.068Z,15.71
2023-03-05T19:36:37.214Z,15.77
2023-03-05T19:39:05.418Z,15.83
2023-03-05T19:41:33.976Z,15.85
2023-03-05T19:44:01.681Z,15.73
2023-03-05T19:46:30.083Z,15.78
2023-03-05T19:48:57.908Z,15.81
2023-03-05T19:51:26.729Z,15.71
2023-03-05T19:53:54.510Z,15.61
2023-03-05T19:56:22.799Z,15.84
2023-03-05T19:58:50.599Z,15.45
2023-03-05T20:01:20.710Z,15.17
2023-03-05T20:03:49.841Z,15.00
2023-03-05T20:06:18.520Z,15.03
2023-03-05T20:08:46.564Z,15.01
2023-03-05T20:11:15.844Z,14.67
2023-03-05T20:13:43.797Z,14.47
2023-03-05T20:16:26.094Z,14.51
2023-03-05T20:18:55.287Z,14.45
2023-03-05T20:21:27.868Z,14.35
2023-03-05T20:23:56.881Z,14.44
2023-03-05T20:26:26.892Z,14.60
2023-03-05T20:28:55.120Z,14.34
2023-03-05T20:31:25.186Z,14.43
2023-03-05T20:33:53.302Z,14.28
2023-03-05T20:36:21.407Z,14.00
2023-03-05T20:38:49.122Z,14.33
2023-03-05T20:41:18.632Z,14.21
2023-03-05T20:43:49.767Z,14.21
2023-03-05T20:46:37.200Z,14.08
2023-03-05T20:49:09.037Z,14.03
2023-03-05T20:51:38.303Z,13.92
2023-03-05T20:54:07.457Z,14.06
2023-03-05T20:56:36.377Z,13.93
2023-03-05T20:59:06.452Z,14.02
2023-03-05T21:01:35.574Z,14.02
2023-03-05T21:04:04.515Z,14.05
2023-03-05T21:06:33.083Z,13.90
2023-03-05T21:09:01.104Z,13.88
2023-03-05T21:11:31.205Z,13.95
2023-03-05T21:13:59.606Z,13.95
2023-03-05T21:16:28.152Z,13.75
2023-03-05T21:18:57.502Z,13.89
2023-03-05T21:21:25.627Z,13.81
2023-03-05T21:23:53.718Z,13.70
2023-03-05T21:26:23.005Z,13.67
2023-03-05T21:28:50.806Z,13.64
2023-03-05T21:31:20.542Z,13.72
2023-03-05T21:33:48.986Z,13.65
2023-03-05T21:36:18.947Z,13.60
2023-03-05T21:38:47.459Z,13.71
2023-03-05T21:41:15.954Z,13.67
2023-03-05T21:43:44.081Z,13.67
2023-03-05T21:46:12.185Z,13.57
2023-03-05T21:48:39.972Z,13.49
2023-03-05T21:51:17.218Z,13.74
2023-03-05T21:53:47.607Z,13.49
2023-03-05T21:56:26.089Z,13.60
2023-03-05T21:58:54.158Z,13.55
2023-03-05T22:01:22.609Z,13.37
2023-03-05T22:03:50.700Z,13.55
2023-03-05T22:06:19.799Z,13.45
2023-03-05T22:08:47.782Z,13.29
2023-03-05T22:11:17.584Z,13.38
2023-03-05T22:13:45.532Z,13.26
2023-03-05T22:16:21.103Z,13.09
2023-03-05T22:18:48.823Z,13.42
2023-03-05T22:21:21.350Z,13.54
2023-03-05T22:23:50.065Z,13.50
2023-03-05T22:26:18.120Z,13.44
2023-03-05T22:28:46.165Z,13.57
2023-03-05T22:31:20.987Z,13.58
2023-03-05T22:33:48.889Z,13.52
2023-03-05T22:36:17.117Z,13.36
2023-03-05T22:38:44.737Z,13.44
2023-03-05T22:41:16.942Z,13.39
2023-03-05T22:43:44.799Z,13.36
2023-03-05T22:46:14.354Z,13.35
2023-03-05T22:48:42.358Z,13.22
2023-03-05T22:51:11.586Z,13.09
2023-03-05T22:53:39.629Z,13.23
2023-03-05T22:56:12.276Z,13.08
2023-03-05T22:58:39.924Z,13.15
2023-03-05T23:01:12.472Z,13.22
2023-03-05T23:03:41.214Z,12.93
2023-03-05T23:06:41.662Z,13.13
2023-03-05T23:09:09.255Z,13.06
2023-03-05T23:11:37.249Z,13.15
2023-03-05T23:14:04.892Z,13.18
2023-03-05T23:16:32.806Z,13.19
2023-03-05T23:19:00.443Z,12.95
2023-03-05T23:21:28.385Z,12.94
2023-03-05T23:23:58.000Z,12.76
2023-03-05T23:26:25.930Z,12.83
2023-03-05T23:28:53.531Z,12.99
2023-03-05T23:31:21.530Z,12.76
2023-03-05T23:33:49.273Z,12.73
2023-03-05T23:36:20.071Z,12.68
2023-03-05T23:38:47.981Z,12.59
2023-03-05T23:41:15.920Z,12.80
2023-03-05T23:43:43.594Z,12.76
2023-03-05T23:46:12.175Z,12.89
2023-03-05T23:48:40.024Z,12.76
2023-03-05T23:51:09.363Z,12.57
2023-03-05T23:53:37.389Z,12.57
2023-03-05T23:56:10.212Z,12.50
2023-03-05T23:58:38.860Z,12.59
